Terminal Aerodrome Forecast
Issued by NWS

Home | Current Version | Previous Version | Graphics & Text | Print | Product List | Glossary On
Versions: 1 2 3 4 5 6 7 8 9 10 11 12 13 14 15 16 17 18 19 20 21 22 23
000
FTUS43 KLSX 152108 AAB
TAFSUS
TAF AMD
KSUS 152108Z 1521/1618 08004KT 1SM -RA BR OVC006
      TEMPO 1521/1522 3SM BR
     FM152200 VRB03KT 4SM BR VCSH OVC008
     FM160400 11005KT P6SM OVC003
     FM161500 12007KT 3SM -RA OVC003=

USA.gov is the U.S. government's official web portal to all federal, state and local government web resources and services.